createdAt,value
2022-10-28T00:00:16.179Z,101589.31
2022-10-28T00:05:21.137Z,101592.53
2022-10-28T00:10:24.804Z,101583.56
2022-10-28T00:15:28.724Z,101581.63
2022-10-28T00:20:33.887Z,101594.75
2022-10-28T00:25:37.582Z,101590.09
2022-10-28T00:30:41.288Z,101593.44
2022-10-28T00:35:46.314Z,101594.22
2022-10-28T00:40:49.967Z,101587.19
2022-10-28T00:45:53.701Z,101574.97
2022-10-28T00:50:59.286Z,101564.59
2022-10-28T00:56:04.647Z,101562.81
2022-10-28T01:01:08.409Z,101571.69
2022-10-28T01:06:14.199Z,101565.69
2022-10-28T01:11:46.554Z,101563.94
2022-10-28T01:17:04.738Z,101561.31
2022-10-28T01:22:21.542Z,101551.50
2022-10-28T01:27:51.172Z,101544.34
2022-10-28T01:33:05.391Z,101532.00
2022-10-28T01:38:18.755Z,101523.91
2022-10-28T01:43:26.998Z,101527.12
2022-10-28T01:53:41.730Z,101532.09
2022-10-28T01:58:46.196Z,101534.56
2022-10-28T02:03:53.170Z,101530.12
2022-10-28T02:09:23.122Z,101518.03
2022-10-28T02:14:39.822Z,101527.69
2022-10-28T02:19:52.385Z,101540.72
2022-10-28T02:25:04.028Z,101532.78
2022-10-28T02:30:12.428Z,101526.72
2022-10-28T02:35:21.997Z,101523.25
2022-10-28T02:40:29.805Z,101524.00
2022-10-28T02:45:38.840Z,101530.97
2022-10-28T02:50:49.391Z,101529.06
2022-10-28T02:55:56.529Z,101509.88
2022-10-28T03:01:00.276Z,101521.09
2022-10-28T03:06:05.516Z,101519.34
2022-10-28T03:11:09.168Z,101526.88
2022-10-28T03:16:12.848Z,101519.84
2022-10-28T03:21:17.857Z,101518.94
2022-10-28T03:26:21.488Z,101512.81
2022-10-28T03:31:25.367Z,101515.56
2022-10-28T03:36:30.523Z,101500.75
2022-10-28T03:41:34.200Z,101500.75
2022-10-28T03:46:37.877Z,101509.41
2022-10-28T03:51:42.872Z,101507.69
2022-10-28T03:56:46.534Z,101501.87
2022-10-28T04:01:50.348Z,101504.97
2022-10-28T04:06:55.488Z,101506.12
2022-10-28T04:11:59.250Z,101495.88
2022-10-28T04:17:03.091Z,101501.19
2022-10-28T04:22:09.106Z,101503.09
2022-10-28T04:27:12.796Z,101504.19
2022-10-28T04:32:16.459Z,101504.28
2022-10-28T04:37:21.562Z,101504.34
2022-10-28T04:42:25.520Z,101501.91
2022-10-28T04:47:29.302Z,101499.16
2022-10-28T04:52:34.370Z,101493.16
2022-10-28T04:57:38.023Z,101490.44
2022-10-28T05:02:45.971Z,101490.38
2022-10-28T05:07:51.381Z,101493.69
2022-10-28T05:12:55.300Z,101492.72
2022-10-28T05:17:59.014Z,101496.28
2022-10-28T05:23:04.071Z,101495.34
2022-10-28T05:28:07.816Z,101492.66
2022-10-28T05:33:12.281Z,101497.84
2022-10-28T05:38:17.435Z,101487.44
2022-10-28T05:43:21.086Z,101476.84
2022-10-28T05:48:25.593Z,101471.47
2022-10-28T05:53:30.646Z,101480.91
2022-10-28T05:58:34.340Z,101469.47
2022-10-28T06:03:38.024Z,101473.72
2022-10-28T06:08:43.063Z,101485.00
2022-10-28T06:13:45.184Z,101494.41
2022-10-28T06:18:48.833Z,101483.12
2022-10-28T06:23:53.799Z,101485.56
2022-10-28T06:28:57.510Z,101484.78
2022-10-28T06:34:01.207Z,101475.91
2022-10-28T06:39:06.560Z,101476.78
2022-10-28T06:44:10.255Z,101486.41
2022-10-28T06:49:15.556Z,101478.59
2022-10-28T06:54:21.681Z,101485.63
2022-10-28T06:59:25.510Z,101482.25
2022-10-28T07:04:29.172Z,101467.72
2022-10-28T07:09:36.618Z,101466.03
2022-10-28T07:14:40.555Z,101480.91
2022-10-28T07:19:44.578Z,101489.94
2022-10-28T07:24:52.704Z,101507.41
2022-10-28T07:29:56.436Z,101506.72
2022-10-28T07:35:00.223Z,101499.25
2022-10-28T07:40:06.084Z,101495.34
2022-10-28T07:45:10.157Z,101507.16
2022-10-28T07:50:14.136Z,101492.72
2022-10-28T07:55:21.857Z,101485.34
2022-10-28T08:00:25.861Z,101486.59
2022-10-28T08:05:29.593Z,101490.59
2022-10-28T08:10:34.783Z,101494.50
2022-10-28T08:15:38.490Z,101503.66
2022-10-28T08:20:42.158Z,101514.28
2022-10-28T08:25:51.907Z,101513.16
2022-10-28T08:31:08.620Z,101520.66
2022-10-28T08:36:14.446Z,101519.56
2022-10-28T08:41:31.369Z,101505.44
2022-10-28T08:46:54.757Z,101511.19
2022-10-28T08:52:02.274Z,101513.28
2022-10-28T08:57:17.888Z,101508.16
2022-10-28T09:02:24.382Z,101514.47
2022-10-28T09:07:28.125Z,101508.50
2022-10-28T09:12:43.133Z,101515.66
2022-10-28T09:17:53.922Z,101528.09
2022-10-28T09:22:59.739Z,101529.09
2022-10-28T09:28:25.487Z,101528.37
2022-10-28T09:33:43.974Z,101533.81
2022-10-28T09:38:48.913Z,101522.78
2022-10-28T09:43:58.384Z,101535.53
2022-10-28T09:49:06.445Z,101529.00
2022-10-28T09:54:12.166Z,101526.66
2022-10-28T09:59:17.647Z,101519.25
2022-10-28T10:04:23.383Z,101509.19
2022-10-28T10:09:29.714Z,101511.37
2022-10-28T10:14:39.972Z,101509.09
2022-10-28T10:20:01.044Z,101507.63
2022-10-28T10:25:22.460Z,101511.41
2022-10-28T10:30:31.493Z,101505.47
2022-10-28T10:35:38.030Z,101510.00
2022-10-28T10:40:49.611Z,101516.53
2022-10-28T10:46:02.391Z,101522.19
2022-10-28T10:51:08.160Z,101512.66
2022-10-28T10:56:15.680Z,101505.88
2022-10-28T11:01:22.908Z,101513.06
2022-10-28T11:06:30.310Z,101512.09
2022-10-28T11:11:35.602Z,101513.53
2022-10-28T11:16:51.504Z,101507.31
2022-10-28T11:22:13.630Z,101494.06
2022-10-28T11:27:28.966Z,101514.22
2022-10-28T11:33:01.957Z,101514.28
2022-10-28T11:38:25.949Z,101515.09
2022-10-28T11:43:37.796Z,101514.28
2022-10-28T11:49:10.224Z,101509.81
2022-10-28T11:54:26.088Z,101525.50
2022-10-28T11:59:53.626Z,101530.84
2022-10-28T12:05:06.670Z,101536.00
2022-10-28T12:10:30.230Z,101531.66
2022-10-28T12:15:41.770Z,101537.81
2022-10-28T12:20:55.808Z,101542.31
2022-10-28T12:26:02.371Z,101544.19
2022-10-28T12:31:09.450Z,101544.09
2022-10-28T12:36:25.095Z,101553.62
2022-10-28T12:41:44.668Z,101558.59
2022-10-28T12:46:57.161Z,101552.34
2022-10-28T12:52:10.605Z,101566.19
2022-10-28T12:57:17.130Z,101568.75
2022-10-28T13:02:25.825Z,101571.44
2022-10-28T13:07:58.520Z,101575.78
2022-10-28T13:13:22.679Z,101573.94
2022-10-28T13:18:59.271Z,101584.75
2022-10-28T13:24:17.544Z,101572.00
2022-10-28T13:29:24.460Z,101569.72
2022-10-28T13:34:34.477Z,101585.41
2022-10-28T13:39:45.457Z,101603.91
2022-10-28T13:44:50.642Z,101607.50
2022-10-28T13:50:26.081Z,101619.19
2022-10-28T13:55:44.367Z,101631.81
2022-10-28T14:00:50.583Z,101623.87
2022-10-28T14:05:59.074Z,101621.38
2022-10-28T14:11:07.331Z,101611.66
2022-10-28T14:16:27.538Z,101614.91
2022-10-28T14:21:42.350Z,101608.94
2022-10-28T14:27:28.715Z,101620.28
2022-10-28T14:32:43.958Z,101630.72
2022-10-28T14:38:24.080Z,101621.06
2022-10-28T14:43:44.346Z,101635.94
2022-10-28T14:48:53.374Z,101646.50
2022-10-28T14:54:00.578Z,101642.75
2022-10-28T14:59:26.230Z,101634.69
2022-10-28T15:04:31.004Z,101646.75
2022-10-28T15:09:36.258Z,101646.53
2022-10-28T15:14:42.739Z,101646.41
2022-10-28T15:19:47.898Z,101655.97
2022-10-28T15:25:00.187Z,101652.12
2022-10-28T15:30:14.320Z,101662.56
2022-10-28T15:35:40.390Z,101666.88
2022-10-28T15:40:44.147Z,101674.78
2022-10-28T15:45:49.333Z,101659.78
2022-10-28T15:51:12.601Z,101666.78
2022-10-28T15:56:21.757Z,101688.44
2022-10-28T16:01:32.235Z,101694.63
2022-10-28T16:06:37.866Z,101706.75
2022-10-28T16:11:45.177Z,101712.59
2022-10-28T16:16:50.457Z,101719.28
2022-10-28T16:21:54.214Z,101714.59
2022-10-28T16:27:15.910Z,101716.13
2022-10-28T16:32:24.828Z,101725.37
2022-10-28T16:37:30.430Z,101740.91
2022-10-28T16:42:34.454Z,101742.41
2022-10-28T16:47:39.486Z,101754.56
2022-10-28T16:52:43.247Z,101757.91
2022-10-28T16:57:46.954Z,101757.81
2022-10-28T17:02:54.062Z,101751.56
2022-10-28T17:07:58.846Z,101760.22
2022-10-28T17:13:03.093Z,101766.09
2022-10-28T17:18:08.714Z,101772.75
2022-10-28T17:23:12.525Z,101784.84
2022-10-28T17:28:16.198Z,101783.91
2022-10-28T17:33:21.258Z,101775.69
2022-10-28T17:38:24.947Z,101794.50
2022-10-28T17:43:28.872Z,101816.16
2022-10-28T17:48:34.400Z,101819.28
2022-10-28T17:53:38.166Z,101819.87
2022-10-28T17:58:41.796Z,101820.44
2022-10-28T18:03:50.335Z,101836.81
2022-10-28T18:08:54.289Z,101835.00
2022-10-28T18:13:58.313Z,101837.41
2022-10-28T18:19:06.340Z,101842.38
2022-10-28T18:24:10.345Z,101852.75
2022-10-28T18:29:14.171Z,101854.28
2022-10-28T18:34:19.336Z,101848.06
2022-10-28T18:39:23.243Z,101885.34
2022-10-28T18:44:31.837Z,101885.97
2022-10-28T18:49:36.901Z,101882.28
2022-10-28T18:54:40.754Z,101882.00
2022-10-28T19:00:05.084Z,101876.38
2022-10-28T19:05:09.998Z,101895.28
2022-10-28T19:10:13.774Z,101910.88
2022-10-28T19:15:17.716Z,101894.31
2022-10-28T19:20:23.837Z,101890.81
2022-10-28T19:25:28.454Z,101888.91
2022-10-28T19:30:32.155Z,101908.63
2022-10-28T19:35:37.285Z,101902.38
2022-10-28T19:40:41.009Z,101900.53
2022-10-28T19:45:44.750Z,101911.72
2022-10-28T19:50:51.157Z,101922.97
2022-10-28T19:55:58.941Z,101931.69
2022-10-28T20:01:04.339Z,101932.53
2022-10-28T20:06:11.109Z,101936.91
2022-10-28T20:11:18.921Z,101943.19
2022-10-28T20:16:26.099Z,101950.31
2022-10-28T20:21:33.278Z,101961.03
2022-10-28T20:26:39.250Z,101969.03
2022-10-28T20:31:42.974Z,101963.72
2022-10-28T20:36:48.486Z,101966.84
2022-10-28T20:41:52.173Z,101978.06
2022-10-28T20:46:55.927Z,101983.00
2022-10-28T20:52:00.971Z,101990.03
2022-10-28T20:57:04.930Z,101986.56
2022-10-28T21:02:10.346Z,101979.31
2022-10-28T21:07:15.610Z,101985.94
2022-10-28T21:12:19.384Z,101994.19
2022-10-28T21:17:23.065Z,101997.25
2022-10-28T21:22:28.085Z,101995.87
2022-10-28T21:27:31.906Z,101993.72
2022-10-28T21:32:37.190Z,101986.47
2022-10-28T21:37:42.306Z,101974.00
2022-10-28T21:42:49.824Z,101969.37
2022-10-28T21:47:55.433Z,101979.50
2022-10-28T21:53:03.923Z,101987.84
2022-10-28T21:58:08.088Z,101981.56
2022-10-28T22:03:12.781Z,101987.62
2022-10-28T22:08:18.742Z,101992.66
2022-10-28T22:13:22.358Z,101991.72
2022-10-28T22:18:27.026Z,101993.53
2022-10-28T22:23:32.165Z,101997.91
2022-10-28T22:28:36.387Z,101998.09
2022-10-28T22:33:40.801Z,102006.06
2022-10-28T22:38:46.846Z,102007.94
2022-10-28T22:43:52.175Z,102027.88
2022-10-28T22:48:56.197Z,102035.88
2022-10-28T22:54:01.202Z,102028.03
2022-10-28T22:59:05.065Z,102009.69
2022-10-28T23:04:11.186Z,101998.09
2022-10-28T23:09:16.231Z,102007.56
2022-10-28T23:14:19.909Z,102015.94
2022-10-28T23:19:23.594Z,102025.31
2022-10-28T23:24:28.628Z,102016.41
2022-10-28T23:29:32.394Z,102029.16
2022-10-28T23:34:36.043Z,102027.38
2022-10-28T23:39:41.110Z,102017.63
2022-10-28T23:44:44.836Z,102016.56
2022-10-28T23:49:48.513Z,102017.94
2022-10-28T23:54:53.494Z,102019.41
2022-10-28T23:59:57.179Z,102013.13
